createdAt,value
2019-01-23T00:00:41.731Z,58.40
2019-01-23T00:04:45.166Z,58.50
2019-01-23T00:08:48.590Z,58.60
2019-01-23T00:12:52.020Z,58.50
2019-01-23T00:16:55.454Z,58.60
2019-01-23T00:20:58.888Z,58.70
2019-01-23T00:25:02.319Z,58.80
2019-01-23T00:29:05.831Z,59.30
2019-01-23T00:33:09.252Z,58.80
2019-01-23T00:37:12.683Z,58.40
2019-01-23T00:41:35.450Z,58.90
2019-01-23T00:45:38.887Z,58.50
2019-01-23T00:49:42.324Z,58.90
2019-01-23T00:53:45.742Z,59.00
2019-01-23T00:57:49.176Z,59.10
2019-01-23T01:01:52.636Z,59.20
2019-01-23T01:05:56.264Z,59.20
2019-01-23T01:09:59.711Z,59.20
2019-01-23T01:14:03.133Z,59.20
2019-01-23T01:18:06.642Z,59.20
2019-01-23T01:22:10.143Z,59.30
2019-01-23T01:26:13.577Z,59.30
2019-01-23T01:30:22.435Z,59.20
2019-01-23T01:34:25.859Z,59.90
2019-01-23T01:38:29.290Z,59.30
2019-01-23T01:42:32.727Z,58.70
2019-01-23T01:46:36.166Z,59.40
2019-01-23T01:50:39.594Z,58.90
2019-01-23T01:54:43.012Z,59.30
2019-01-23T01:58:46.442Z,59.40
2019-01-23T02:02:49.870Z,59.20
2019-01-23T02:06:53.298Z,59.20
2019-01-23T02:10:56.714Z,58.70
2019-01-23T02:15:00.185Z,58.80
2019-01-23T02:19:03.877Z,59.40
2019-01-23T02:23:07.307Z,59.20
2019-01-23T02:27:10.734Z,59.30
2019-01-23T02:31:14.290Z,59.20
2019-01-23T02:35:18.104Z,59.20
2019-01-23T02:39:21.535Z,58.70
2019-01-23T02:43:24.969Z,59.00
2019-01-23T02:47:28.415Z,58.80
2019-01-23T02:51:31.830Z,58.90
2019-01-23T02:55:35.263Z,58.70
2019-01-23T02:59:38.711Z,58.00
2019-01-23T03:03:42.207Z,58.10
2019-01-23T03:07:45.658Z,58.50
2019-01-23T03:11:49.171Z,58.50
2019-01-23T03:15:52.603Z,58.10
2019-01-23T03:19:56.041Z,58.20
2019-01-23T03:23:59.475Z,59.30
2019-01-23T03:28:02.907Z,58.20
2019-01-23T03:32:06.360Z,58.70
2019-01-23T03:36:09.791Z,58.60
2019-01-23T03:40:18.624Z,58.60
2019-01-23T03:44:22.108Z,58.60
2019-01-23T03:48:25.523Z,58.60
2019-01-23T03:52:28.954Z,58.60
2019-01-23T03:56:32.394Z,58.50
2019-01-23T04:00:36.356Z,58.80
2019-01-23T04:04:39.794Z,58.80
2019-01-23T04:08:43.588Z,58.60
2019-01-23T04:12:47.022Z,58.50
2019-01-23T04:16:50.462Z,58.50
2019-01-23T04:20:53.935Z,58.30
2019-01-23T04:24:57.375Z,57.90
2019-01-23T04:29:00.790Z,58.30
2019-01-23T04:33:04.224Z,58.40
2019-01-23T04:37:07.678Z,58.20
2019-01-23T04:41:11.238Z,58.10
2019-01-23T04:45:16.699Z,58.00
2019-01-23T04:49:20.137Z,57.50
2019-01-23T04:53:25.199Z,58.00
2019-01-23T04:57:28.638Z,57.90
2019-01-23T05:01:32.058Z,58.10
2019-01-23T05:05:35.486Z,58.00
2019-01-23T05:09:38.912Z,57.90
2019-01-23T05:13:42.339Z,57.50
2019-01-23T05:17:45.780Z,57.40
2019-01-23T05:21:49.343Z,57.30
2019-01-23T05:25:52.845Z,57.30
2019-01-23T05:29:56.258Z,57.70
2019-01-23T05:33:59.693Z,57.30
2019-01-23T05:38:03.640Z,57.20
2019-01-23T05:42:07.186Z,57.70
2019-01-23T05:46:10.628Z,57.20
2019-01-23T05:50:16.593Z,57.60
2019-01-23T05:54:20.015Z,57.30
2019-01-23T05:58:23.452Z,57.60
2019-01-23T06:02:26.870Z,57.60
2019-01-23T06:06:30.338Z,57.10
2019-01-23T06:10:33.786Z,57.00
2019-01-23T06:14:37.212Z,57.40
2019-01-23T06:18:40.655Z,57.40
2019-01-23T06:22:44.101Z,57.50
2019-01-23T06:26:47.534Z,57.50
2019-01-23T06:30:50.968Z,57.30
2019-01-23T06:34:54.478Z,56.90
2019-01-23T06:38:57.911Z,56.90
2019-01-23T06:43:01.343Z,57.40
2019-01-23T06:47:04.836Z,57.30
2019-01-23T06:51:08.285Z,57.30
2019-01-23T06:55:11.785Z,57.30
2019-01-23T06:59:15.207Z,57.60
2019-01-23T07:03:18.643Z,57.50
2019-01-23T07:07:22.068Z,57.60
2019-01-23T07:11:25.492Z,57.40
2019-01-23T07:15:28.938Z,57.40
2019-01-23T07:19:32.376Z,57.50
2019-01-23T07:23:35.822Z,57.30
2019-01-23T07:27:39.261Z,57.20
2019-01-23T07:31:42.697Z,57.10
2019-01-23T07:35:46.120Z,57.00
2019-01-23T07:39:49.569Z,56.70
2019-01-23T07:43:53.003Z,57.10
2019-01-23T07:47:56.414Z,57.00
2019-01-23T07:51:59.843Z,56.90
2019-01-23T07:56:03.282Z,56.90
2019-01-23T08:00:09.788Z,56.30
2019-01-23T08:04:13.216Z,56.90
2019-01-23T08:08:16.657Z,56.40
2019-01-23T08:12:20.107Z,56.60
2019-01-23T08:16:23.558Z,56.60
2019-01-23T08:20:28.870Z,56.00
2019-01-23T08:24:32.295Z,56.50
2019-01-23T08:28:35.728Z,56.20
2019-01-23T08:32:39.167Z,56.70
2019-01-23T08:36:42.603Z,56.70
2019-01-23T08:40:46.026Z,56.80
2019-01-23T08:44:49.490Z,56.90
2019-01-23T08:48:52.929Z,56.80
2019-01-23T08:52:56.376Z,56.70
2019-01-23T08:56:59.801Z,56.90
2019-01-23T09:01:03.232Z,56.90
2019-01-23T09:05:09.375Z,56.30
2019-01-23T09:09:12.809Z,56.20
2019-01-23T09:13:16.243Z,56.20
2019-01-23T09:17:19.676Z,56.80
2019-01-23T09:21:23.132Z,56.80
2019-01-23T09:25:27.690Z,56.50
2019-01-23T09:29:31.189Z,57.10
2019-01-23T09:33:43.354Z,57.00
2019-01-23T09:37:58.135Z,57.10
2019-01-23T09:42:16.644Z,56.60
2019-01-23T09:46:31.592Z,57.10
2019-01-23T09:50:53.175Z,56.50
2019-01-23T09:54:56.612Z,57.00
2019-01-23T09:59:02.700Z,56.80
2019-01-23T10:03:05.636Z,56.40
2019-01-23T10:07:09.078Z,56.80
2019-01-23T10:11:12.577Z,56.80
2019-01-23T10:15:19.198Z,56.90
2019-01-23T10:19:22.631Z,56.80
2019-01-23T10:23:26.208Z,56.80
2019-01-23T10:27:29.636Z,56.70
2019-01-23T10:31:33.062Z,56.80
2019-01-23T10:35:36.671Z,56.80
2019-01-23T10:39:40.103Z,56.80
2019-01-23T10:43:43.576Z,56.30
2019-01-23T10:47:48.005Z,56.70
2019-01-23T10:51:51.431Z,56.30
2019-01-23T10:55:54.858Z,56.50
2019-01-23T10:59:58.325Z,56.90
2019-01-23T11:04:01.910Z,56.80
2019-01-23T11:08:06.484Z,56.60
2019-01-23T11:12:09.909Z,56.50
2019-01-23T11:16:13.335Z,56.50
2019-01-23T11:20:19.116Z,55.80
2019-01-23T11:24:22.542Z,56.20
2019-01-23T11:28:25.962Z,56.30
2019-01-23T11:32:29.408Z,56.10
2019-01-23T11:36:32.841Z,56.20
2019-01-23T11:40:36.279Z,56.00
2019-01-23T11:44:39.720Z,56.10
2019-01-23T11:48:43.155Z,55.90
2019-01-23T11:52:48.027Z,55.30
2019-01-23T11:56:51.479Z,55.30
2019-01-23T12:00:54.903Z,55.80
2019-01-23T12:04:58.344Z,55.30
2019-01-23T12:09:01.841Z,55.70
2019-01-23T12:13:05.278Z,55.60
2019-01-23T12:17:08.789Z,55.60
2019-01-23T12:21:12.231Z,55.70
2019-01-23T12:25:15.781Z,55.70
2019-01-23T12:29:19.221Z,55.00
2019-01-23T12:33:22.648Z,55.50
2019-01-23T12:37:26.070Z,54.60
2019-01-23T12:41:29.495Z,55.00
2019-01-23T12:45:33.357Z,54.30
2019-01-23T12:49:36.791Z,54.80
2019-01-23T12:53:40.247Z,54.20
2019-01-23T12:57:43.736Z,54.40
2019-01-23T13:01:47.224Z,54.00
2019-01-23T13:05:50.654Z,54.40
2019-01-23T13:09:54.116Z,53.80
2019-01-23T13:13:57.562Z,54.30
2019-01-23T13:18:01.028Z,54.20
2019-01-23T13:22:04.725Z,53.90
2019-01-23T13:26:08.156Z,53.90
2019-01-23T13:30:20.200Z,54.50
2019-01-23T13:34:23.667Z,55.00
2019-01-23T13:38:27.166Z,54.20
2019-01-23T13:42:30.592Z,54.00
2019-01-23T13:46:34.024Z,54.50
2019-01-23T13:50:37.496Z,54.60
2019-01-23T13:54:40.931Z,54.40
2019-01-23T13:58:44.389Z,54.30
2019-01-23T14:02:47.804Z,54.30
2019-01-23T14:06:51.238Z,53.70
2019-01-23T14:10:54.670Z,53.70
2019-01-23T14:14:58.118Z,53.40
2019-01-23T14:19:01.553Z,53.90
2019-01-23T14:23:05.328Z,54.10
2019-01-23T14:27:08.758Z,54.10
2019-01-23T14:31:12.197Z,53.80
2019-01-23T14:35:15.676Z,53.70
2019-01-23T14:39:19.107Z,53.10
2019-01-23T14:43:22.611Z,53.50
2019-01-23T14:47:26.038Z,53.40
2019-01-23T14:51:29.480Z,53.40
2019-01-23T14:55:33.153Z,53.10
2019-01-23T14:59:36.583Z,53.40
2019-01-23T15:03:40.018Z,53.10
2019-01-23T15:07:43.439Z,53.20
2019-01-23T15:11:46.890Z,52.70
2019-01-23T15:15:50.318Z,53.10
2019-01-23T15:19:56.513Z,53.10
2019-01-23T15:23:59.949Z,53.00
2019-01-23T15:28:03.698Z,53.10
2019-01-23T15:32:07.127Z,52.80
2019-01-23T15:36:10.559Z,53.20
2019-01-23T15:40:23.980Z,52.90
2019-01-23T15:44:27.405Z,52.90
2019-01-23T15:48:30.834Z,53.50
2019-01-23T15:52:34.269Z,53.60
2019-01-23T15:56:37.706Z,53.20
2019-01-23T16:00:41.150Z,53.70
2019-01-23T16:04:44.573Z,53.30
2019-01-23T16:08:47.998Z,53.40
2019-01-23T16:12:51.728Z,53.80
2019-01-23T16:16:55.176Z,53.10
2019-01-23T16:20:58.592Z,53.60
2019-01-23T16:25:02.247Z,53.10
2019-01-23T16:29:05.754Z,53.20
2019-01-23T16:33:09.183Z,53.90
2019-01-23T16:37:12.788Z,54.10
2019-01-23T16:41:16.210Z,53.70
2019-01-23T16:45:21.174Z,53.70
2019-01-23T16:49:24.612Z,54.10
2019-01-23T16:53:29.015Z,54.30
2019-01-23T16:57:33.870Z,54.40
2019-01-23T17:01:37.545Z,54.00
2019-01-23T17:05:40.991Z,54.60
2019-01-23T17:09:44.439Z,54.70
2019-01-23T17:13:47.875Z,54.80
2019-01-23T17:17:51.423Z,54.20
2019-01-23T17:21:54.841Z,54.40
2019-01-23T17:25:58.291Z,54.90
2019-01-23T17:30:01.750Z,54.80
2019-01-23T17:34:05.218Z,54.30
2019-01-23T17:38:08.743Z,54.70
2019-01-23T17:42:12.171Z,54.70
2019-01-23T17:46:15.595Z,54.20
2019-01-23T17:50:21.484Z,54.00
2019-01-23T17:54:24.920Z,54.00
2019-01-23T17:58:28.344Z,54.00
2019-01-23T18:02:31.785Z,54.30
2019-01-23T18:06:35.213Z,53.90
2019-01-23T18:10:38.679Z,53.90
2019-01-23T18:14:48.876Z,53.90
2019-01-23T18:18:47.307Z,54.00
2019-01-23T18:22:50.745Z,54.20
2019-01-23T18:26:54.174Z,53.80
2019-01-23T18:31:06.648Z,54.30
2019-01-23T18:35:15.830Z,54.00
2019-01-23T18:39:28.201Z,53.50
2019-01-23T18:43:40.674Z,53.30
2019-01-23T18:47:59.224Z,53.20
2019-01-23T18:52:11.212Z,53.10
2019-01-23T18:56:14.653Z,52.80
2019-01-23T19:00:38.953Z,52.90
2019-01-23T19:04:42.376Z,53.00
2019-01-23T19:08:45.826Z,52.90
2019-01-23T19:12:49.332Z,53.00
2019-01-23T19:16:52.762Z,53.00
2019-01-23T19:20:56.192Z,53.40
2019-01-23T19:24:59.632Z,53.30
2019-01-23T19:29:03.113Z,53.30
2019-01-23T19:33:13.349Z,52.80
2019-01-23T19:37:12.300Z,52.60
2019-01-23T19:41:20.319Z,53.00
2019-01-23T19:45:22.116Z,52.60
2019-01-23T19:49:25.694Z,53.10
2019-01-23T19:53:29.248Z,52.40
2019-01-23T19:57:32.701Z,52.40
2019-01-23T20:01:36.107Z,52.30
2019-01-23T20:05:39.543Z,52.20
2019-01-23T20:09:42.974Z,52.60
2019-01-23T20:13:46.409Z,52.00
2019-01-23T20:17:51.284Z,52.30
2019-01-23T20:21:54.724Z,52.20
2019-01-23T20:25:58.177Z,51.70
2019-01-23T20:30:01.617Z,52.10
2019-01-23T20:34:05.595Z,51.60
2019-01-23T20:38:09.094Z,51.70
2019-01-23T20:42:12.527Z,52.00
2019-01-23T20:46:15.965Z,51.70
2019-01-23T20:50:25.078Z,52.10
2019-01-23T20:54:28.523Z,52.00
2019-01-23T20:58:31.959Z,52.10
2019-01-23T21:02:35.400Z,52.30
2019-01-23T21:06:38.840Z,51.70
2019-01-23T21:10:42.260Z,52.30
2019-01-23T21:14:45.701Z,52.10
2019-01-23T21:18:50.365Z,52.10
2019-01-23T21:22:53.792Z,51.80
2019-01-23T21:26:57.247Z,52.10
2019-01-23T21:31:00.680Z,52.00
2019-01-23T21:35:06.663Z,52.00
2019-01-23T21:43:25.877Z,51.70
2019-01-23T21:47:29.296Z,51.70
2019-01-23T21:51:32.748Z,52.20
2019-01-23T21:55:36.252Z,51.80
2019-01-23T21:59:40.167Z,51.70
2019-01-23T22:03:49.211Z,52.20
2019-01-23T22:07:48.750Z,52.20
2019-01-23T22:11:52.196Z,51.80
2019-01-23T22:15:55.635Z,51.70
2019-01-23T22:19:59.091Z,52.30
2019-01-23T22:24:02.539Z,51.80
2019-01-23T22:28:06.062Z,51.90
2019-01-23T22:32:09.558Z,52.40
2019-01-23T22:36:13.011Z,52.50
2019-01-23T22:40:18.856Z,52.00
2019-01-23T22:44:22.277Z,51.90
2019-01-23T22:48:25.727Z,52.40
2019-01-23T22:52:29.159Z,52.00
2019-01-23T22:56:32.606Z,52.10
2019-01-23T23:00:39.683Z,52.50
2019-01-23T23:04:43.098Z,52.60
2019-01-23T23:08:46.536Z,52.60
2019-01-23T23:12:50.027Z,52.60
2019-01-23T23:16:53.459Z,52.50
2019-01-23T23:20:56.908Z,52.00
2019-01-23T23:25:00.323Z,52.60
2019-01-23T23:29:03.935Z,51.90
2019-01-23T23:33:07.370Z,52.50
2019-01-23T23:37:10.800Z,52.60
2019-01-23T23:41:14.232Z,52.50
2019-01-23T23:45:19.093Z,52.40
2019-01-23T23:49:22.524Z,52.30
2019-01-23T23:53:25.950Z,52.90
2019-01-23T23:57:29.382Z,52.20
